Fulton, IN

7:09 AM EST on January 27, 2015 (GMT -0500)
Kokomo Municipal | Change Station
CLOSE
Current Station
Airport
Location: Kokomo,
Elevation: 830 ft
Nearby Weather Stations

Elev 830 ft 40.53 °N, 86.06 °W | Updated 14 minutes ago

Overcast
Overcast
21 °F
Feels Like 14 °F
N
6
Wind Variable Wind from NE

Today
High -- | Low -- °F
--% Chance of Precip.
Yesterday
High -- | Low -- °F
Precip. -- in
8:00 AM 5:55 PM
First Quarter, 53% visible
Pressure 30.00 in
Visibility 10.0 miles
Clouds Overcast 2400 ft
Windchill 14 °F
Dew Point 18 °F
Humidity 86%
Rainfall 0.00 in
Snow Depth Not available.
UV 0 out of 12
Pollen .10 out of 12
Air Quality Not available.
Flu Activity Not available.
METAR KOKK 271155Z AUTO 04005KT 10SM OVC024 M06/M08 A3000 RMK AO1 11050 21060 52020

More Conditions Fewer Conditions

Pressure 30.00 in
Visibility 10.0 miles
Clouds Overcast 2400 ft
Windchill 14 °F
Dew Point 18 °F
Humidity 86%
Rainfall 0.00 in
Snow Depth Not available.
UV 0 out of 12
Pollen .10 out of 12
Air Quality Not available.
Flu Activity Not available.
METAR KOKK 271155Z AUTO 04005KT 10SM OVC024 M06/M08 A3000 RMK AO1 11050 21060 52020

More Conditions Fewer Conditions

10-Day Weather Forecast

Almanac

Astronomy

Jan. 27, 2015 Rise Set
Actual Time
Civil Twilight
Nautical Twilight
Astronomical Twilight
Moon
Length of Visible Light
Length of Day
Tomorrow will be .
, % of the Moon is Illuminated

Today's Extremes

State Highs State Lows

Community

WunderPhotos

Upload Photos

1,790,566 photos uploaded!

WunderBlogs® & News

Nearby

Air Quality

  Air Quality AQ Index Pollutant
Not available.

Snow Depth

Station Depth Elevation

Earthquake Activity

City Distance Mag. Time & Date
Minimum magnitude displayed is 2.5.

Coastal Water Temperatures

Place Temperature

Nearby Weather Stations